sensor_id;sensor_type;location;lat;lon;timestamp;pressure;altitude;pressure_sealevel;temperature;humidity
56518;BME280;42419;48.760;2.322;2023-03-22T00:02:19;100531.97;;;24.72;34.18
56518;BME280;42419;48.760;2.322;2023-03-22T00:04:45;100529.28;;;24.72;34.23
56518;BME280;42419;48.760;2.322;2023-03-22T00:07:10;100512.72;;;24.64;33.99
56518;BME280;42419;48.760;2.322;2023-03-22T00:09:35;100531.97;;;24.72;33.62
56518;BME280;42419;48.760;2.322;2023-03-22T00:12:01;100444.44;;;24.22;33.65
56518;BME280;42419;48.760;2.322;2023-03-22T00:14:26;100470.22;;;24.40;34.19
56518;BME280;42419;48.760;2.322;2023-03-22T00:16:51;100516.88;;;24.69;33.45
56518;BME280;42419;48.760;2.322;2023-03-22T00:19:17;100507.91;;;24.69;33.70
56518;BME280;42419;48.760;2.322;2023-03-22T00:21:42;100512.34;;;24.70;33.55
56518;BME280;42419;48.760;2.322;2023-03-22T00:24:07;100510.53;;;24.70;33.71
56518;BME280;42419;48.760;2.322;2023-03-22T00:26:33;100500.03;;;24.66;33.83
56518;BME280;42419;48.760;2.322;2023-03-22T00:28:58;100485.72;;;24.65;33.56
56518;BME280;42419;48.760;2.322;2023-03-22T00:31:24;100491.69;;;24.70;33.63
56518;BME280;42419;48.760;2.322;2023-03-22T00:33:49;100497.94;;;24.71;33.47
56518;BME280;42419;48.760;2.322;2023-03-22T00:36:14;100442.59;;;24.37;33.34
56518;BME280;42419;48.760;2.322;2023-03-22T00:38:40;100489.84;;;24.71;33.37
56518;BME280;42419;48.760;2.322;2023-03-22T00:41:19;100467.94;;;24.63;33.46
56518;BME280;42419;48.760;2.322;2023-03-22T00:43:46;100468.97;;;24.60;33.18
56518;BME280;42419;48.760;2.322;2023-03-22T00:46:13;100477.34;;;24.70;32.93
56518;BME280;42419;48.760;2.322;2023-03-22T00:48:39;100478.22;;;24.70;33.03
56518;BME280;42419;48.760;2.322;2023-03-22T00:51:05;100451.78;;;24.63;33.27
56518;BME280;42419;48.760;2.322;2023-03-22T00:53:30;100472.75;;;24.72;33.52
56518;BME280;42419;48.760;2.322;2023-03-22T00:55:57;100469.06;;;24.73;32.94
56518;BME280;42419;48.760;2.322;2023-03-22T00:58:22;100471.75;;;24.73;32.97
56518;BME280;42419;48.760;2.322;2023-03-22T01:00:48;100469.94;;;24.73;32.95
56518;BME280;42419;48.760;2.322;2023-03-22T01:03:14;100460.97;;;24.73;32.90
56518;BME280;42419;48.760;2.322;2023-03-22T01:05:40;100466.50;;;24.71;33.09
56518;BME280;42419;48.760;2.322;2023-03-22T01:08:05;100464.84;;;24.69;32.90
56518;BME280;42419;48.760;2.322;2023-03-22T01:10:34;100452.44;;;24.66;32.90
56518;BME280;42419;48.760;2.322;2023-03-22T01:13:00;100459.16;;;24.73;32.64
56518;BME280;42419;48.760;2.322;2023-03-22T01:15:25;100449.66;;;24.68;33.11
56518;BME280;42419;48.760;2.322;2023-03-22T01:17:51;100451.09;;;24.73;32.54
56518;BME280;42419;48.760;2.322;2023-03-22T01:20:16;100444.81;;;24.73;32.78
56518;BME280;42419;48.760;2.322;2023-03-22T01:22:42;100446.56;;;24.74;32.70
56518;BME280;42419;48.760;2.322;2023-03-22T01:25:07;100430.63;;;24.71;32.38
56518;BME280;42419;48.760;2.322;2023-03-22T01:27:33;100425.13;;;24.72;32.22
56518;BME280;42419;48.760;2.322;2023-03-22T01:29:58;100431.19;;;24.76;32.76
56518;BME280;42419;48.760;2.322;2023-03-22T01:32:24;100412.34;;;24.76;32.65
56518;BME280;42419;48.760;2.322;2023-03-22T01:34:49;100406.19;;;24.74;32.53
56518;BME280;42419;48.760;2.322;2023-03-22T01:37:16;100410.53;;;24.76;32.27
56518;BME280;42419;48.760;2.322;2023-03-22T01:39:41;100405.97;;;24.77;32.24
56518;BME280;42419;48.760;2.322;2023-03-22T01:42:12;100402.44;;;24.76;32.16
56518;BME280;42419;48.760;2.322;2023-03-22T01:44:37;100398.00;;;24.75;32.47
56518;BME280;42419;48.760;2.322;2023-03-22T01:47:03;100301.06;;;24.20;32.28
56518;BME280;42419;48.760;2.322;2023-03-22T01:49:31;100398.75;;;24.77;32.06
56518;BME280;42419;48.760;2.322;2023-03-22T01:52:01;100388.97;;;24.76;32.10
56518;BME280;42419;48.760;2.322;2023-03-22T01:54:38;100373.22;;;24.70;31.98
56518;BME280;42419;48.760;2.322;2023-03-22T01:57:07;100403.97;;;24.80;32.29
56518;BME280;42419;48.760;2.322;2023-03-22T01:59:32;100354.88;;;24.63;32.30
56518;BME280;42419;48.760;2.322;2023-03-22T02:01:58;100386.00;;;24.81;32.59
56518;BME280;42419;48.760;2.322;2023-03-22T02:04:36;100338.22;;;24.56;31.85
56518;BME280;42419;48.760;2.322;2023-03-22T02:07:09;100367.00;;;24.82;32.04
56518;BME280;42419;48.760;2.322;2023-03-22T02:09:39;100358.94;;;24.82;32.13
56518;BME280;42419;48.760;2.322;2023-03-22T02:17:51;100341.59;;;24.86;31.60
56518;BME280;42419;48.760;2.322;2023-03-22T02:20:32;100339.78;;;24.87;31.98
56518;BME280;42419;48.760;2.322;2023-03-22T02:23:16;100348.81;;;24.86;31.73
56518;BME280;42419;48.760;2.322;2023-03-22T02:31:42;100332.34;;;24.90;31.72
56518;BME280;42419;48.760;2.322;2023-03-22T02:34:39;100335.25;;;24.87;31.83
56518;BME280;42419;48.760;2.322;2023-03-22T02:48:10;100341.31;;;24.91;31.49
56518;BME280;42419;48.760;2.322;2023-03-22T02:51:07;100341.22;;;24.92;31.45
56518;BME280;42419;48.760;2.322;2023-03-22T02:53:46;100342.81;;;24.95;31.19
56518;BME280;42419;48.760;2.322;2023-03-22T02:56:23;100336.59;;;24.94;31.63
56518;BME280;42419;48.760;2.322;2023-03-22T02:58:52;100343.81;;;24.94;31.41
56518;BME280;42419;48.760;2.322;2023-03-22T03:01:23;100274.78;;;24.52;31.43
56518;BME280;42419;48.760;2.322;2023-03-22T03:03:53;100338.97;;;24.99;31.82
56518;BME280;42419;48.760;2.322;2023-03-22T03:06:21;100257.78;;;24.51;31.46
56518;BME280;42419;48.760;2.322;2023-03-22T03:08:50;100339.94;;;24.98;31.54
56518;BME280;42419;48.760;2.322;2023-03-22T03:11:18;100337.25;;;24.98;31.27
56518;BME280;42419;48.760;2.322;2023-03-22T03:13:48;100306.63;;;24.72;31.30
56518;BME280;42419;48.760;2.322;2023-03-22T03:16:16;100357.06;;;24.97;31.70
56518;BME280;42419;48.760;2.322;2023-03-22T03:19:07;100357.81;;;24.99;31.04
56518;BME280;42419;48.760;2.322;2023-03-22T03:24:21;100348.91;;;24.98;31.56
56518;BME280;42419;48.760;2.322;2023-03-22T03:27:14;100340.59;;;25.01;31.34
56518;BME280;42419;48.760;2.322;2023-03-22T03:29:48;100331.88;;;24.98;31.47
56518;BME280;42419;48.760;2.322;2023-03-22T03:32:25;100262.28;;;24.51;31.18
56518;BME280;42419;48.760;2.322;2023-03-22T03:35:06;100279.00;;;24.56;31.33
56518;BME280;42419;48.760;2.322;2023-03-22T03:37:42;100331.75;;;24.99;31.43
56518;BME280;42419;48.760;2.322;2023-03-22T03:40:10;100337.25;;;24.98;31.31
56518;BME280;42419;48.760;2.322;2023-03-22T03:42:40;100311.03;;;24.87;31.33
56518;BME280;42419;48.760;2.322;2023-03-22T03:45:08;100328.97;;;25.01;31.38
56518;BME280;42419;48.760;2.322;2023-03-22T03:47:35;100342.75;;;24.96;31.39
56518;BME280;42419;48.760;2.322;2023-03-22T03:50:04;100291.06;;;24.77;31.19
56518;BME280;42419;48.760;2.322;2023-03-22T03:52:30;100322.72;;;25.00;31.06
56518;BME280;42419;48.760;2.322;2023-03-22T03:54:55;100325.63;;;24.97;31.19
56518;BME280;42419;48.760;2.322;2023-03-22T03:57:20;100331.00;;;24.97;31.55
56518;BME280;42419;48.760;2.322;2023-03-22T03:59:46;100320.31;;;24.96;31.05
56518;BME280;42419;48.760;2.322;2023-03-22T04:02:11;100318.59;;;24.95;30.98
56518;BME280;42419;48.760;2.322;2023-03-22T04:04:37;100307.81;;;24.95;31.43
56518;BME280;42419;48.760;2.322;2023-03-22T04:07:04;100323.13;;;24.94;31.19
56518;BME280;42419;48.760;2.322;2023-03-22T04:09:32;100328.53;;;24.94;31.25
56518;BME280;42419;48.760;2.322;2023-03-22T04:11:58;100323.13;;;24.94;30.99
56518;BME280;42419;48.760;2.322;2023-03-22T04:14:24;100332.19;;;24.93;31.49
56518;BME280;42419;48.760;2.322;2023-03-22T04:16:50;100313.81;;;24.86;31.56
56518;BME280;42419;48.760;2.322;2023-03-22T04:19:15;100330.44;;;24.92;31.18
56518;BME280;42419;48.760;2.322;2023-03-22T04:21:41;100324.09;;;24.93;30.82
56518;BME280;42419;48.760;2.322;2023-03-22T04:24:07;100328.72;;;24.91;31.49
56518;BME280;42419;48.760;2.322;2023-03-22T04:26:33;100320.75;;;24.90;31.25
56518;BME280;42419;48.760;2.322;2023-03-22T04:28:58;100326.13;;;24.90;31.14
56518;BME280;42419;48.760;2.322;2023-03-22T04:31:27;100318.16;;;24.88;31.17
56518;BME280;42419;48.760;2.322;2023-03-22T04:33:53;100312.84;;;24.87;31.36
56518;BME280;42419;48.760;2.322;2023-03-22T04:36:22;100313.41;;;24.92;31.42
56518;BME280;42419;48.760;2.322;2023-03-22T04:38:48;100309.97;;;24.90;31.10
56518;BME280;42419;48.760;2.322;2023-03-22T04:41:13;100298.22;;;24.91;30.98
56518;BME280;42419;48.760;2.322;2023-03-22T04:43:39;100314.38;;;24.91;31.40
56518;BME280;42419;48.760;2.322;2023-03-22T04:46:08;100286.53;;;24.78;30.84
56518;BME280;42419;48.760;2.322;2023-03-22T04:48:38;100312.75;;;24.88;31.07
56518;BME280;42419;48.760;2.322;2023-03-22T04:51:06;100295.25;;;24.81;31.58
56518;BME280;42419;48.760;2.322;2023-03-22T04:53:32;100240.88;;;24.49;31.39
56518;BME280;42419;48.760;2.322;2023-03-22T04:56:04;100311.88;;;24.88;31.38
56518;BME280;42419;48.760;2.322;2023-03-22T04:58:32;100312.75;;;24.88;31.07
56518;BME280;42419;48.760;2.322;2023-03-22T05:00:57;100300.66;;;24.81;31.51
56518;BME280;42419;48.760;2.322;2023-03-22T05:03:23;100282.31;;;24.74;30.92
56518;BME280;42419;48.760;2.322;2023-03-22T05:05:52;100302.84;;;24.89;31.41
56518;BME280;42419;48.760;2.322;2023-03-22T05:08:19;100221.53;;;24.43;31.42
56518;BME280;42419;48.760;2.322;2023-03-22T05:10:45;100295.72;;;24.88;31.27
56518;BME280;42419;48.760;2.322;2023-03-22T05:13:10;100302.00;;;24.88;31.11
56518;BME280;42419;48.760;2.322;2023-03-22T05:15:37;100307.28;;;24.90;31.40
56518;BME280;42419;48.760;2.322;2023-03-22T05:18:03;100310.81;;;24.90;31.17
56518;BME280;42419;48.760;2.322;2023-03-22T05:20:29;100301.34;;;24.85;31.42
56518;BME280;42419;48.760;2.322;2023-03-22T05:22:54;100315.44;;;24.88;31.11
56518;BME280;42419;48.760;2.322;2023-03-22T05:25:21;100310.81;;;24.90;31.49
56518;BME280;42419;48.760;2.322;2023-03-22T05:27:46;100294.59;;;24.78;31.17
56518;BME280;42419;48.760;2.322;2023-03-22T05:30:15;100311.69;;;24.91;31.30
56518;BME280;42419;48.760;2.322;2023-03-22T05:32:40;100312.66;;;24.90;31.05
56518;BME280;42419;48.760;2.322;2023-03-22T05:35:08;100312.75;;;24.88;31.48
56518;BME280;42419;48.760;2.322;2023-03-22T05:37:33;100307.38;;;24.88;31.16
56518;BME280;42419;48.760;2.322;2023-03-22T05:39:59;100287.31;;;24.80;31.06
56518;BME280;42419;48.760;2.322;2023-03-22T05:42:25;100275.09;;;24.74;31.40
56518;BME280;42419;48.760;2.322;2023-03-22T05:44:50;100303.72;;;24.89;31.13
56518;BME280;42419;48.760;2.322;2023-03-22T05:47:15;100304.69;;;24.88;31.40
56518;BME280;42419;48.760;2.322;2023-03-22T05:49:41;100297.78;;;24.84;31.28
56518;BME280;42419;48.760;2.322;2023-03-22T05:52:06;100237.38;;;24.47;31.32
56518;BME280;42419;48.760;2.322;2023-03-22T05:54:32;100292.25;;;24.86;30.99
56518;BME280;42419;48.760;2.322;2023-03-22T05:56:58;100298.34;;;24.89;31.08
56518;BME280;42419;48.760;2.322;2023-03-22T05:59:23;100315.38;;;24.90;30.83
56518;BME280;42419;48.760;2.322;2023-03-22T06:01:48;100299.19;;;24.90;30.98
56518;BME280;42419;48.760;2.322;2023-03-22T06:04:15;100302.84;;;24.89;31.56
56518;BME280;42419;48.760;2.322;2023-03-22T06:06:40;100222.41;;;24.43;31.26
56518;BME280;42419;48.760;2.322;2023-03-22T06:09:06;100294.66;;;24.90;31.32
56518;BME280;42419;48.760;2.322;2023-03-22T06:11:31;100289.78;;;24.83;30.89
56518;BME280;42419;48.760;2.322;2023-03-22T06:13:59;100311.50;;;24.94;30.79
56518;BME280;42419;48.760;2.322;2023-03-22T06:16:25;100219.34;;;24.49;30.70
56518;BME280;42419;48.760;2.322;2023-03-22T06:18:51;100287.56;;;24.89;31.18
56518;BME280;42419;48.760;2.322;2023-03-22T06:21:16;100307.06;;;24.93;31.40
56518;BME280;42419;48.760;2.322;2023-03-22T06:23:41;100301.69;;;24.93;31.31
56518;BME280;42419;48.760;2.322;2023-03-22T06:26:08;100295.34;;;24.94;31.48
56518;BME280;42419;48.760;2.322;2023-03-22T06:28:36;100290.69;;;24.96;31.35
56518;BME280;42419;48.760;2.322;2023-03-22T06:31:05;100304.06;;;24.97;31.27
56518;BME280;42419;48.760;2.322;2023-03-22T06:33:31;100305.69;;;25.00;31.50
56518;BME280;42419;48.760;2.322;2023-03-22T06:35:56;100311.84;;;25.02;31.49
56518;BME280;42419;48.760;2.322;2023-03-22T06:38:23;100315.28;;;25.04;31.60
56518;BME280;42419;48.760;2.322;2023-03-22T06:40:49;100315.19;;;25.05;32.23
56518;BME280;42419;48.760;2.322;2023-03-22T06:43:14;100324.13;;;25.06;32.39
56518;BME280;42419;48.760;2.322;2023-03-22T06:45:40;100320.47;;;25.07;32.69
56518;BME280;42419;48.760;2.322;2023-03-22T06:48:05;100324.22;;;25.04;33.19
56518;BME280;42419;48.760;2.322;2023-03-22T06:50:30;100329.53;;;25.06;33.23
56518;BME280;42419;48.760;2.322;2023-03-22T06:52:56;100343.00;;;25.06;33.22
56518;BME280;42419;48.760;2.322;2023-03-22T06:55:21;100335.78;;;25.07;33.02
56518;BME280;42419;48.760;2.322;2023-03-22T06:57:47;100337.59;;;25.06;32.94
56518;BME280;42419;48.760;2.322;2023-03-22T07:00:12;100300.47;;;24.84;32.56
56518;BME280;42419;48.760;2.322;2023-03-22T07:02:38;100344.72;;;25.07;32.94
56518;BME280;42419;48.760;2.322;2023-03-22T07:05:03;100345.31;;;25.12;32.68
56518;BME280;42419;48.760;2.322;2023-03-22T07:07:29;100353.09;;;25.17;32.44
56518;BME280;42419;48.760;2.322;2023-03-22T07:09:54;100353.94;;;25.17;32.38
56518;BME280;42419;48.760;2.322;2023-03-22T07:12:21;100352.00;;;25.19;32.70
56518;BME280;42419;48.760;2.322;2023-03-22T07:14:46;100348.16;;;25.23;32.55
56518;BME280;42419;48.760;2.322;2023-03-22T07:17:11;100352.78;;;25.21;32.28
56518;BME280;42419;48.760;2.322;2023-03-22T07:19:38;100296.00;;;24.97;32.70
56518;BME280;42419;48.760;2.322;2023-03-22T07:22:04;100344.28;;;25.27;32.27
56518;BME280;42419;48.760;2.322;2023-03-22T07:24:29;100355.81;;;25.29;32.33
56518;BME280;42419;48.760;2.322;2023-03-22T07:26:55;100337.91;;;25.28;32.19
56518;BME280;42419;48.760;2.322;2023-03-22T07:29:20;100349.25;;;25.33;31.99
56518;BME280;42419;48.760;2.322;2023-03-22T07:31:46;100332.63;;;25.27;32.46
56518;BME280;42419;48.760;2.322;2023-03-22T07:34:11;100344.81;;;25.32;31.84
56518;BME280;42419;48.760;2.322;2023-03-22T07:36:37;100335.13;;;25.30;32.42
56518;BME280;42419;48.760;2.322;2023-03-22T07:39:03;100342.22;;;25.31;31.76
56518;BME280;42419;48.760;2.322;2023-03-22T07:41:30;100341.34;;;25.30;32.48
56518;BME280;42419;48.760;2.322;2023-03-22T07:43:55;100345.03;;;25.29;32.10
56518;BME280;42419;48.760;2.322;2023-03-22T07:46:21;100276.47;;;24.94;31.72
56518;BME280;42419;48.760;2.322;2023-03-22T07:48:46;100331.97;;;25.23;32.03
56518;BME280;42419;48.760;2.322;2023-03-22T07:51:11;100337.97;;;25.14;32.00
56518;BME280;42419;48.760;2.322;2023-03-22T07:53:37;100354.31;;;25.25;31.41
56518;BME280;42419;48.760;2.322;2023-03-22T07:56:03;100358.84;;;25.25;32.11
56518;BME280;42419;48.760;2.322;2023-03-22T07:58:29;100343.47;;;25.13;31.91
56518;BME280;42419;48.760;2.322;2023-03-22T08:00:54;100375.09;;;25.23;31.75
56518;BME280;42419;48.760;2.322;2023-03-22T08:03:19;100297.78;;;24.84;31.42
56518;BME280;42419;48.760;2.322;2023-03-22T08:05:46;100360.75;;;25.23;32.07
56518;BME280;42419;48.760;2.322;2023-03-22T08:08:12;100365.59;;;25.18;31.82
56518;BME280;42419;48.760;2.322;2023-03-22T08:10:40;100369.69;;;25.23;31.39
56518;BME280;42419;48.760;2.322;2023-03-22T08:13:06;100372.41;;;25.23;31.56
56518;BME280;42419;48.760;2.322;2023-03-22T08:15:31;100371.53;;;25.23;31.87
56518;BME280;42419;48.760;2.322;2023-03-22T08:17:58;100382.44;;;25.21;31.51
56518;BME280;42419;48.760;2.322;2023-03-22T08:20:24;100383.25;;;25.22;31.88
56518;BME280;42419;48.760;2.322;2023-03-22T08:22:51;100386.09;;;25.20;31.83
56518;BME280;42419;48.760;2.322;2023-03-22T08:25:16;100390.50;;;25.21;31.49
56518;BME280;42419;48.760;2.322;2023-03-22T08:27:42;100361.84;;;25.06;31.71
56518;BME280;42419;48.760;2.322;2023-03-22T08:30:08;100392.22;;;25.22;31.09
56518;BME280;42419;48.760;2.322;2023-03-22T08:32:34;100363.59;;;25.07;31.82
56518;BME280;42419;48.760;2.322;2023-03-22T08:34:59;100382.44;;;25.21;31.28
56518;BME280;42419;48.760;2.322;2023-03-22T08:37:25;100380.88;;;25.17;31.33
56518;BME280;42419;48.760;2.322;2023-03-22T08:39:50;100333.44;;;24.88;31.40
56518;BME280;42419;48.760;2.322;2023-03-22T08:42:15;100389.19;;;25.14;31.36
56518;BME280;42419;48.760;2.322;2023-03-22T08:44:41;100383.88;;;25.13;31.89
56518;BME280;42419;48.760;2.322;2023-03-22T08:47:06;100372.84;;;25.03;31.36
56518;BME280;42419;48.760;2.322;2023-03-22T08:49:32;100386.84;;;25.08;31.77
56518;BME280;42419;48.760;2.322;2023-03-22T08:51:57;100388.44;;;25.12;31.47
56518;BME280;42419;48.760;2.322;2023-03-22T08:54:23;100380.13;;;25.15;31.59
56518;BME280;42419;48.760;2.322;2023-03-22T08:56:49;100380.88;;;25.17;31.35
56518;BME280;42419;48.760;2.322;2023-03-22T08:59:14;100377.13;;;25.20;31.49
56518;BME280;42419;48.760;2.322;2023-03-22T09:01:40;100347.81;;;25.15;31.28
56518;BME280;42419;48.760;2.322;2023-03-22T09:04:05;100361.72;;;25.22;31.35
56518;BME280;42419;48.760;2.322;2023-03-22T09:06:30;100272.19;;;24.77;31.30
56518;BME280;42419;48.760;2.322;2023-03-22T09:08:56;100349.31;;;25.19;31.29
56518;BME280;42419;48.760;2.322;2023-03-22T09:11:22;100369.06;;;25.20;31.36
56518;BME280;42419;48.760;2.322;2023-03-22T09:13:48;100358.19;;;25.07;31.70
56518;BME280;42419;48.760;2.322;2023-03-22T09:16:14;100355.09;;;25.13;31.56
56518;BME280;42419;48.760;2.322;2023-03-22T09:18:41;100360.19;;;25.18;31.68
56518;BME280;42419;48.760;2.322;2023-03-22T09:21:07;100286.84;;;24.73;31.26
56518;BME280;42419;48.760;2.322;2023-03-22T09:23:33;100278.88;;;24.72;31.38
56518;BME280;42419;48.760;2.322;2023-03-22T09:26:00;100327.88;;;25.03;31.66
56518;BME280;42419;48.760;2.322;2023-03-22T09:28:26;100348.75;;;25.14;31.56
56518;BME280;42419;48.760;2.322;2023-03-22T09:30:51;100265.72;;;24.67;31.51
56518;BME280;42419;48.760;2.322;2023-03-22T09:33:17;100343.47;;;25.13;31.24
56518;BME280;42419;48.760;2.322;2023-03-22T09:35:42;100352.53;;;25.12;31.22
56518;BME280;42419;48.760;2.322;2023-03-22T09:38:08;100336.38;;;25.12;31.25
56518;BME280;42419;48.760;2.322;2023-03-22T09:40:36;100286.22;;;24.82;31.60
56518;BME280;42419;48.760;2.322;2023-03-22T09:43:05;100336.38;;;25.12;31.41
56518;BME280;42419;48.760;2.322;2023-03-22T09:45:41;100333.56;;;25.13;31.54
56518;BME280;42419;48.760;2.322;2023-03-22T09:50:52;100256.25;;;24.74;31.56
56518;BME280;42419;48.760;2.322;2023-03-22T09:53:19;100254.28;;;24.64;31.83
56518;BME280;42419;48.760;2.322;2023-03-22T09:55:54;100328.16;;;25.13;32.16
56518;BME280;42419;48.760;2.322;2023-03-22T10:00:59;100336.94;;;25.17;32.27
56518;BME280;42419;48.760;2.322;2023-03-22T10:06:18;100321.72;;;25.16;32.44
56518;BME280;42419;48.760;2.322;2023-03-22T10:11:48;100308.25;;;25.16;32.48
56518;BME280;42419;48.760;2.322;2023-03-22T10:14:30;100294.78;;;25.16;32.21
56518;BME280;42419;48.760;2.322;2023-03-22T10:17:02;100287.00;;;25.11;31.82
56518;BME280;42419;48.760;2.322;2023-03-22T10:19:47;100297.66;;;25.13;32.08
56518;BME280;42419;48.760;2.322;2023-03-22T10:22:16;100306.72;;;25.12;32.20
56518;BME280;42419;48.760;2.322;2023-03-22T10:24:45;100302.22;;;25.12;31.93
56518;BME280;42419;48.760;2.322;2023-03-22T10:27:15;100244.41;;;24.77;32.49
56518;BME280;42419;48.760;2.322;2023-03-22T10:29:53;100299.31;;;25.15;32.10
56518;BME280;42419;48.760;2.322;2023-03-22T10:32:40;100302.00;;;25.15;32.26
56518;BME280;42419;48.760;2.322;2023-03-22T10:35:12;100301.91;;;25.17;32.33
56518;BME280;42419;48.760;2.322;2023-03-22T10:37:38;100243.97;;;24.70;32.15
56518;BME280;42419;48.760;2.322;2023-03-22T10:40:06;100300.16;;;25.16;32.72
56518;BME280;42419;48.760;2.322;2023-03-22T10:42:35;100287.56;;;25.16;32.65
56518;BME280;42419;48.760;2.322;2023-03-22T10:45:13;100295.09;;;25.11;32.69
56518;BME280;42419;48.760;2.322;2023-03-22T10:47:41;100311.69;;;25.18;32.49
56518;BME280;42419;48.760;2.322;2023-03-22T10:50:22;100308.91;;;25.19;32.64
56518;BME280;42419;48.760;2.322;2023-03-22T10:52:59;100286.41;;;25.06;32.72
56518;BME280;42419;48.760;2.322;2023-03-22T10:55:27;100300.03;;;25.17;32.38
56518;BME280;42419;48.760;2.322;2023-03-22T10:58:19;100289.09;;;25.20;32.54
56518;BME280;42419;48.760;2.322;2023-03-22T11:00:53;100278.41;;;25.19;32.48
56518;BME280;42419;48.760;2.322;2023-03-22T11:03:37;100207.78;;;24.74;32.50
56518;BME280;42419;48.760;2.322;2023-03-22T11:06:24;100269.88;;;25.12;32.34
56518;BME280;42419;48.760;2.322;2023-03-22T11:09:21;100272.13;;;25.18;32.64
56518;BME280;42419;48.760;2.322;2023-03-22T11:11:51;100266.97;;;25.15;32.40
56518;BME280;42419;48.760;2.322;2023-03-22T11:14:41;100228.31;;;24.89;32.55
56518;BME280;42419;48.760;2.322;2023-03-22T11:17:11;100264.38;;;25.14;32.58
56518;BME280;42419;48.760;2.322;2023-03-22T11:19:49;100254.00;;;25.08;32.57
56518;BME280;42419;48.760;2.322;2023-03-22T11:24:57;100266.19;;;25.13;32.21
56518;BME280;42419;48.760;2.322;2023-03-22T11:27:25;100268.03;;;25.13;32.38
56518;BME280;42419;48.760;2.322;2023-03-22T11:29:56;100270.72;;;25.13;32.59
56518;BME280;42419;48.760;2.322;2023-03-22T11:32:30;100257.53;;;25.08;32.42
56518;BME280;42419;48.760;2.322;2023-03-22T11:34:59;100269.09;;;25.10;32.50
56518;BME280;42419;48.760;2.322;2023-03-22T11:37:25;100270.16;;;25.08;32.49
56518;BME280;42419;48.760;2.322;2023-03-22T11:39:59;100270.16;;;25.08;32.98
56518;BME280;42419;48.760;2.322;2023-03-22T11:42:25;100264.97;;;25.04;33.15
56518;BME280;42419;48.760;2.322;2023-03-22T11:44:51;100204.75;;;24.66;32.97
56518;BME280;42419;48.760;2.322;2023-03-22T11:47:16;100267.00;;;25.01;32.75
56518;BME280;42419;48.760;2.322;2023-03-22T11:49:47;100261.72;;;24.99;33.41
56518;BME280;42419;48.760;2.322;2023-03-22T11:52:17;100269.91;;;24.98;34.17
56518;BME280;42419;48.760;2.322;2023-03-22T11:54:44;100261.06;;;24.96;33.86
56518;BME280;42419;48.760;2.322;2023-03-22T11:57:20;100242.22;;;24.96;34.19
56518;BME280;42419;48.760;2.322;2023-03-22T12:02:28;100241.47;;;24.94;33.89
56518;BME280;42419;48.760;2.322;2023-03-22T12:05:04;100245.13;;;24.93;33.95
56518;BME280;42419;48.760;2.322;2023-03-22T12:07:33;100251.69;;;24.89;34.22
56518;BME280;42419;48.760;2.322;2023-03-22T12:10:09;100250.72;;;24.90;33.64
56518;BME280;42419;48.760;2.322;2023-03-22T12:12:52;100254.38;;;24.89;34.28
56518;BME280;42419;48.760;2.322;2023-03-22T12:15:23;100189.63;;;24.51;34.01
56518;BME280;42419;48.760;2.322;2023-03-22T12:17:55;100249.19;;;24.86;33.98
56518;BME280;42419;48.760;2.322;2023-03-22T12:20:46;100262.75;;;24.84;34.23
56518;BME280;42419;48.760;2.322;2023-03-22T12:23:19;100250.34;;;24.82;34.26
56518;BME280;42419;48.760;2.322;2023-03-22T12:25:52;100170.06;;;24.35;34.44
56518;BME280;42419;48.760;2.322;2023-03-22T12:28:22;100236.22;;;24.78;34.12
56518;BME280;42419;48.760;2.322;2023-03-22T12:30:51;100235.38;;;24.78;34.23
56518;BME280;42419;48.760;2.322;2023-03-22T12:33:19;100227.41;;;24.76;34.08
56518;BME280;42419;48.760;2.322;2023-03-22T12:35:47;100230.19;;;24.75;34.26
56518;BME280;42419;48.760;2.322;2023-03-22T12:40:56;100219.53;;;24.73;34.27
56518;BME280;42419;48.760;2.322;2023-03-22T12:46:03;100193.66;;;24.58;34.69
56518;BME280;42419;48.760;2.322;2023-03-22T12:48:35;100138.38;;;24.26;34.33
56518;BME280;42419;48.760;2.322;2023-03-22T12:51:07;100190.09;;;24.57;34.54
56518;BME280;42419;48.760;2.322;2023-03-22T12:53:40;100137.72;;;24.22;34.56
56518;BME280;42419;48.760;2.322;2023-03-22T12:56:09;100213.69;;;24.67;34.56
56518;BME280;42419;48.760;2.322;2023-03-22T12:58:35;100188.91;;;24.62;34.42
56518;BME280;42419;48.760;2.322;2023-03-22T13:03:44;100199.69;;;24.62;34.43
56518;BME280;42419;48.760;2.322;2023-03-22T13:06:33;100205.16;;;24.60;34.38
56518;BME280;42419;48.760;2.322;2023-03-22T13:09:34;100201.59;;;24.59;34.49
56518;BME280;42419;48.760;2.322;2023-03-22T13:17:32;100200.09;;;24.55;33.71
56518;BME280;42419;48.760;2.322;2023-03-22T13:28:02;100178.19;;;24.47;33.75
56518;BME280;42419;48.760;2.322;2023-03-22T13:30:35;100171.00;;;24.48;33.91
56518;BME280;42419;48.760;2.322;2023-03-22T13:33:26;100181.66;;;24.49;33.80
56518;BME280;42419;48.760;2.322;2023-03-22T13:35:58;100160.59;;;24.42;33.97
56518;BME280;42419;48.760;2.322;2023-03-22T13:38:29;100170.09;;;24.47;34.24
56518;BME280;42419;48.760;2.322;2023-03-22T13:43:35;100162.97;;;24.46;34.09
56518;BME280;42419;48.760;2.322;2023-03-22T13:53:41;100150.81;;;24.41;32.89
56518;BME280;42419;48.760;2.322;2023-03-22T13:56:10;100142.84;;;24.39;33.26
56518;BME280;42419;48.760;2.322;2023-03-22T13:58:52;100145.53;;;24.39;33.56
56518;BME280;42419;48.760;2.322;2023-03-22T14:01:27;100118.28;;;24.31;33.99
56518;BME280;42419;48.760;2.322;2023-03-22T14:03:56;100122.91;;;24.29;33.87
56518;BME280;42419;48.760;2.322;2023-03-22T14:06:25;100112.22;;;24.28;33.90
56518;BME280;42419;48.760;2.322;2023-03-22T14:08:57;100122.59;;;24.34;33.87
56518;BME280;42419;48.760;2.322;2023-03-22T14:11:36;100125.94;;;24.37;33.58
56518;BME280;42419;48.760;2.322;2023-03-22T14:14:19;100117.13;;;24.35;33.66